Time,TemperatureF,DewpointF,PressureIn,WindDirection,WindDirectionDegrees,WindSpeedMPH,WindSpeedGustMPH,Humidity,HourlyPrecipIn,Conditions,Clouds,dailyrainin,SoftwareType,DateUTC
2013-06-23 00:01:00,66.6,66.0,30.07,South,185,0.0,0.0,98,0.00,,,0.07,Wunderground v.1.15,2013-06-23 04:01:00,
2013-06-23 00:02:00,66.6,66.0,30.07,South,185,0.0,0.0,98,0.00,,,0.07,Wunderground v.1.15,2013-06-23 04:02:00,
2013-06-23 00:07:00,66.6,66.0,30.07,South,185,3.0,3.0,98,0.00,,,0.07,Wunderground v.1.15,2013-06-23 04:07:00,
2013-06-23 00:08:00,66.6,66.0,30.07,South,185,3.0,3.0,98,0.00,,,0.07,Wunderground v.1.15,2013-06-23 04:08:00,
2013-06-23 00:11:00,66.6,66.0,30.07,South,185,0.0,1.0,98,0.00,,,0.07,Wunderground v.1.15,2013-06-23 04:11:00,
2013-06-23 00:16:00,66.6,66.0,30.06,South,185,0.0,4.0,98,0.00,,,0.07,Wunderground v.1.15,2013-06-23 04:16:00,
2013-06-23 00:21:00,66.6,66.0,30.06,South,185,0.0,0.0,98,0.00,,,0.07,Wunderground v.1.15,2013-06-23 04:21:00,
2013-06-23 00:27:00,66.6,66.0,30.06,South,185,0.0,0.0,98,0.00,,,0.07,Wunderground v.1.15,2013-06-23 04:27:00,
2013-06-23 00:33:00,66.6,66.0,30.06,South,185,1.0,1.0,98,0.00,,,0.07,Wunderground v.1.15,2013-06-23 04:33:00,
2013-06-23 00:38:00,66.6,66.0,30.06,South,185,0.0,2.0,98,0.00,,,0.07,Wunderground v.1.15,2013-06-23 04:38:00,
2013-06-23 00:44:00,66.4,65.8,30.06,South,185,0.0,3.0,98,0.00,,,0.07,Wunderground v.1.15,2013-06-23 04:44:00,
2013-06-23 00:50:00,66.4,65.8,30.06,South,185,0.0,0.0,98,0.00,,,0.07,Wunderground v.1.15,2013-06-23 04:50:00,
2013-06-23 00:55:00,66.4,65.8,30.06,South,185,0.0,1.0,98,0.00,,,0.07,Wunderground v.1.15,2013-06-23 04:55:00,
2013-06-23 01:01:00,66.4,65.8,30.06,South,185,0.0,0.0,98,0.00,,,0.07,Wunderground v.1.15,2013-06-23 05:01:00,
2013-06-23 01:06:00,66.4,65.8,30.06,South,185,0.0,0.0,98,0.00,,,0.07,Wunderground v.1.15,2013-06-23 05:06:00,
2013-06-23 01:12:00,66.4,65.8,30.06,South,185,0.0,0.0,98,0.00,,,0.07,Wunderground v.1.15,2013-06-23 05:12:00,
2013-06-23 01:18:00,66.4,65.8,30.06,South,185,0.0,0.0,98,0.00,,,0.07,Wunderground v.1.15,2013-06-23 05:18:00,
2013-06-23 01:24:00,66.4,65.8,30.06,South,185,2.0,2.0,98,0.00,,,0.07,Wunderground v.1.15,2013-06-23 05:24:00,
2013-06-23 01:29:00,66.4,65.8,30.05,South,185,0.0,2.0,98,0.00,,,0.07,Wunderground v.1.15,2013-06-23 05:29:00,
2013-06-23 01:34:00,66.4,65.8,30.05,South,185,0.0,0.0,98,0.00,,,0.07,Wunderground v.1.15,2013-06-23 05:34:00,
2013-06-23 01:40:00,66.4,65.8,30.05,South,185,0.0,0.0,98,0.00,,,0.07,Wunderground v.1.15,2013-06-23 05:40:00,
2013-06-23 01:45:00,66.4,65.8,30.05,South,185,0.0,0.0,98,0.00,,,0.07,Wunderground v.1.15,2013-06-23 05:45:00,
2013-06-23 01:51:00,66.4,65.8,30.05,South,185,0.0,0.0,98,0.61,,,0.09,Wunderground v.1.15,2013-06-23 05:51:00,
2013-06-23 01:56:00,66.4,65.8,30.05,South,185,0.0,0.0,98,0.17,,,0.11,Wunderground v.1.15,2013-06-23 05:56:00,
2013-06-23 02:01:00,66.4,65.8,30.05,South,185,0.0,0.0,98,0.07,,,0.11,Wunderground v.1.15,2013-06-23 06:01:00,
2013-06-23 02:06:00,66.4,65.8,30.05,South,185,0.0,0.0,98,0.04,,,0.11,Wunderground v.1.15,2013-06-23 06:06:00,
2013-06-23 02:11:00,66.4,65.8,30.05,South,185,0.0,0.0,98,0.00,,,0.11,Wunderground v.1.15,2013-06-23 06:11:00,
2013-06-23 02:16:00,66.3,65.7,30.05,South,185,0.0,0.0,98,0.00,,,0.11,Wunderground v.1.15,2013-06-23 06:16:00,
2013-06-23 02:21:00,66.3,65.7,30.05,South,185,0.0,0.0,98,0.00,,,0.11,Wunderground v.1.15,2013-06-23 06:21:00,
2013-06-23 02:26:00,66.3,65.7,30.05,South,185,0.0,0.0,98,0.00,,,0.12,Wunderground v.1.15,2013-06-23 06:26:00,
2013-06-23 02:31:00,66.3,65.7,30.05,South,185,0.0,0.0,98,0.00,,,0.12,Wunderground v.1.15,2013-06-23 06:31:00,
2013-06-23 02:36:00,66.3,65.7,30.05,South,185,0.0,0.0,98,0.00,,,0.12,Wunderground v.1.15,2013-06-23 06:36:00,
2013-06-23 02:41:00,66.4,65.8,30.05,South,185,0.0,0.0,98,0.00,,,0.12,Wunderground v.1.15,2013-06-23 06:41:00,
2013-06-23 02:46:00,66.4,65.8,30.04,South,185,0.0,2.0,98,0.00,,,0.12,Wunderground v.1.15,2013-06-23 06:46:00,
2013-06-23 02:51:00,66.4,65.8,30.04,South,185,0.0,3.0,98,0.00,,,0.12,Wunderground v.1.15,2013-06-23 06:51:00,
2013-06-23 02:56:00,66.6,66.0,30.04,South,185,0.0,3.0,98,0.00,,,0.12,Wunderground v.1.15,2013-06-23 06:56:00,
2013-06-23 03:01:00,66.6,66.3,30.04,South,185,0.0,0.0,99,0.00,,,0.12,Wunderground v.1.15,2013-06-23 07:01:00,
2013-06-23 03:06:00,66.6,66.3,30.04,South,185,0.0,3.0,99,0.00,,,0.12,Wunderground v.1.15,2013-06-23 07:06:00,
2013-06-23 03:11:00,66.6,66.3,30.04,South,185,0.0,0.0,99,0.00,,,0.12,Wunderground v.1.15,2013-06-23 07:11:00,
2013-06-23 03:16:00,66.6,66.0,30.04,South,185,0.0,1.0,98,0.00,,,0.12,Wunderground v.1.15,2013-06-23 07:16:00,
2013-06-23 03:21:00,66.4,66.1,30.04,South,185,0.0,1.0,99,0.00,,,0.12,Wunderground v.1.15,2013-06-23 07:21:00,
2013-06-23 03:26:00,66.4,66.1,30.04,South,185,0.0,1.0,99,0.00,,,0.12,Wunderground v.1.15,2013-06-23 07:26:00,
2013-06-23 03:31:00,66.4,65.8,30.03,South,185,0.0,1.0,98,0.00,,,0.12,Wunderground v.1.15,2013-06-23 07:31:00,
2013-06-23 03:36:00,66.4,65.8,30.03,South,185,1.0,4.0,98,0.00,,,0.12,Wunderground v.1.15,2013-06-23 07:36:00,
2013-06-23 03:41:00,66.4,66.1,30.03,South,185,4.0,4.0,99,0.00,,,0.12,Wunderground v.1.15,2013-06-23 07:41:00,
2013-06-23 03:46:00,66.6,66.3,30.02,South,184,3.0,5.0,99,0.00,,,0.12,Wunderground v.1.15,2013-06-23 07:46:00,
2013-06-23 03:51:00,66.6,66.3,30.02,South,183,3.0,3.0,99,0.00,,,0.12,Wunderground v.1.15,2013-06-23 07:51:00,
2013-06-23 03:56:00,66.8,66.5,30.02,South,179,1.0,5.0,99,0.00,,,0.12,Wunderground v.1.15,2013-06-23 07:56:00,
2013-06-23 04:01:00,66.9,66.3,30.03,South,178,0.0,5.0,98,0.00,,,0.13,Wunderground v.1.15,2013-06-23 08:01:00,
2013-06-23 04:06:00,66.9,66.3,30.03,South,178,2.0,6.0,98,0.19,,,0.15,Wunderground v.1.15,2013-06-23 08:06:00,
2013-06-23 04:11:00,67.1,66.5,30.03,South,177,5.0,5.0,98,0.26,,,0.17,Wunderground v.1.15,2013-06-23 08:11:00,
2013-06-23 04:16:00,67.3,66.7,30.03,South,172,2.0,9.0,98,0.21,,,0.18,Wunderground v.1.15,2013-06-23 08:16:00,
2013-06-23 04:21:00,67.3,66.7,30.03,SSE,163,0.0,7.0,98,0.11,,,0.19,Wunderground v.1.15,2013-06-23 08:21:00,
2013-06-23 04:26:00,67.3,66.7,30.03,SSE,152,8.0,9.0,98,0.16,,,0.20,Wunderground v.1.15,2013-06-23 08:26:00,
2013-06-23 04:31:00,67.1,66.5,30.02,SSE,163,3.0,5.0,98,0.10,,,0.21,Wunderground v.1.15,2013-06-23 08:31:00,
2013-06-23 04:36:00,67.3,66.7,30.02,SE,144,4.0,6.0,98,0.08,,,0.21,Wunderground v.1.15,2013-06-23 08:36:00,
2013-06-23 04:41:00,67.3,66.7,30.02,SE,144,4.0,10.0,98,0.05,,,0.21,Wunderground v.1.15,2013-06-23 08:41:00,
2013-06-23 04:46:00,67.4,66.8,30.02,SSE,162,3.0,11.0,98,0.00,,,0.00,Wunderground v.1.15,2013-06-23 08:46:00,
2013-06-23 04:51:00,67.4,66.8,30.02,SSE,166,0.0,6.0,98,0.00,,,0.00,Wunderground v.1.15,2013-06-23 08:51:00,
2013-06-23 04:57:00,67.4,66.8,30.02,SSE,168,4.0,7.0,98,0.00,,,0.00,Wunderground v.1.15,2013-06-23 08:57:00,
2013-06-23 05:02:00,67.4,66.8,30.03,SSE,164,6.0,8.0,98,0.00,,,0.00,Wunderground v.1.15,2013-06-23 09:02:00,
2013-06-23 05:07:00,67.4,66.5,30.03,SSE,162,4.0,8.0,97,0.00,,,0.00,Wunderground v.1.15,2013-06-23 09:07:00,
2013-06-23 05:12:00,67.4,66.5,30.03,SSE,162,3.0,5.0,97,0.00,,,0.00,Wunderground v.1.15,2013-06-23 09:12:00,
2013-06-23 05:17:00,67.4,66.5,30.03,SSE,161,0.0,7.0,97,0.00,,,0.00,Wunderground v.1.15,2013-06-23 09:17:00,
2013-06-23 05:22:00,67.4,66.5,30.03,SSE,161,0.0,4.0,97,0.00,,,0.00,Wunderground v.1.15,2013-06-23 09:22:00,
2013-06-23 05:27:00,67.4,66.5,30.04,SSE,161,0.0,4.0,97,0.00,,,0.00,Wunderground v.1.15,2013-06-23 09:27:00,
2013-06-23 05:32:00,67.4,66.5,30.04,SSE,161,0.0,1.0,97,0.00,,,0.00,Wunderground v.1.15,2013-06-23 09:32:00,
2013-06-23 05:37:00,67.4,66.5,30.04,SSE,161,2.0,2.0,97,0.00,,,0.00,Wunderground v.1.15,2013-06-23 09:37:00,
2013-06-23 05:42:00,67.3,66.4,30.04,SSE,161,0.0,1.0,97,0.00,,,0.00,Wunderground v.1.15,2013-06-23 09:42:00,
2013-06-23 05:47:00,67.3,66.4,30.04,SSE,161,0.0,2.0,97,0.00,,,0.00,Wunderground v.1.15,2013-06-23 09:47:00,
2013-06-23 05:52:00,67.4,66.5,30.04,SSE,161,0.0,0.0,97,0.00,,,0.00,Wunderground v.1.15,2013-06-23 09:52:00,
2013-06-23 05:57:00,67.4,66.5,30.04,SSE,161,0.0,0.0,97,0.00,,,0.00,Wunderground v.1.15,2013-06-23 09:57:00,
2013-06-23 06:03:00,67.4,66.5,30.04,SSE,161,0.0,3.0,97,0.00,,,0.00,Wunderground v.1.15,2013-06-23 10:03:00,
2013-06-23 06:08:00,67.6,66.7,30.04,SSE,159,0.0,5.0,97,0.00,,,0.00,Wunderground v.1.15,2013-06-23 10:08:00,
2013-06-23 06:13:00,67.8,66.9,30.05,SSE,157,0.0,4.0,97,0.00,,,0.00,Wunderground v.1.15,2013-06-23 10:13:00,
2013-06-23 06:18:00,67.8,66.9,30.05,SSE,167,0.0,6.0,97,0.00,,,0.00,Wunderground v.1.15,2013-06-23 10:18:00,
2013-06-23 06:23:00,67.9,66.7,30.05,SSE,159,3.0,5.0,96,0.00,,,0.00,Wunderground v.1.15,2013-06-23 10:23:00,
2013-06-23 06:28:00,67.9,66.7,30.05,SSE,164,1.0,6.0,96,0.00,,,0.00,Wunderground v.1.15,2013-06-23 10:28:00,
2013-06-23 06:33:00,67.9,66.7,30.05,SSE,167,1.0,6.0,96,0.00,,,0.00,Wunderground v.1.15,2013-06-23 10:33:00,
2013-06-23 06:38:00,68.1,66.9,30.05,SSE,167,4.0,6.0,96,0.00,,,0.00,Wunderground v.1.15,2013-06-23 10:38:00,
2013-06-23 06:43:00,68.1,66.9,30.06,SSE,165,0.0,4.0,96,0.00,,,0.00,Wunderground v.1.15,2013-06-23 10:43:00,
2013-06-23 06:48:00,68.3,67.1,30.06,SSE,161,1.0,6.0,96,0.00,,,0.00,Wunderground v.1.15,2013-06-23 10:48:00,
2013-06-23 06:53:00,68.3,66.8,30.06,South,169,5.0,8.0,95,0.00,,,0.00,Wunderground v.1.15,2013-06-23 10:53:00,
2013-06-23 06:58:00,68.4,66.9,30.06,SSE,167,4.0,8.0,95,0.00,,,0.00,Wunderground v.1.15,2013-06-23 10:58:00,
2013-06-23 07:04:00,68.4,66.9,30.06,SSE,167,5.0,5.0,95,0.00,,,0.00,Wunderground v.1.15,2013-06-23 11:04:00,
2013-06-23 07:09:00,68.6,67.1,30.06,SSE,164,0.0,6.0,95,0.00,,,0.00,Wunderground v.1.15,2013-06-23 11:09:00,
2013-06-23 07:14:00,68.6,67.1,30.06,SSE,164,6.0,6.0,95,0.00,,,0.00,Wunderground v.1.15,2013-06-23 11:14:00,
2013-06-23 07:19:00,68.8,67.3,30.06,SSE,164,5.0,6.0,95,0.00,,,0.00,Wunderground v.1.15,2013-06-23 11:19:00,
2013-06-23 07:24:00,68.9,67.1,30.06,SSE,163,0.0,7.0,94,0.00,,,0.00,Wunderground v.1.15,2013-06-23 11:24:00,
2013-06-23 07:29:00,69.1,67.3,30.07,SSE,163,0.0,7.0,94,0.00,,,0.00,Wunderground v.1.15,2013-06-23 11:29:00,
2013-06-23 07:34:00,69.3,67.5,30.07,SSE,163,2.0,5.0,94,0.00,,,0.00,Wunderground v.1.15,2013-06-23 11:34:00,
2013-06-23 07:39:00,69.4,67.6,30.07,SSE,163,3.0,5.0,94,0.00,,,0.00,Wunderground v.1.15,2013-06-23 11:39:00,
2013-06-23 07:44:00,69.4,67.3,30.07,SSE,163,3.0,5.0,93,0.00,,,0.00,Wunderground v.1.15,2013-06-23 11:44:00,
2013-06-23 07:50:00,69.6,67.5,30.07,SSE,162,4.0,4.0,93,0.00,,,0.00,Wunderground v.1.15,2013-06-23 11:50:00,
2013-06-23 07:55:00,70.1,68.0,30.07,SSE,156,0.0,6.0,93,0.00,,,0.00,Wunderground v.1.15,2013-06-23 11:55:00,
2013-06-23 08:00:00,70.3,67.5,30.07,SSE,159,1.0,3.0,91,0.00,,,0.00,Wunderground v.1.15,2013-06-23 12:00:00,
2013-06-23 08:05:00,70.4,67.3,30.07,SSE,159,3.0,4.0,90,0.00,,,0.00,Wunderground v.1.15,2013-06-23 12:05:00,
2013-06-23 08:10:00,70.4,67.3,30.07,SSE,160,3.0,3.0,90,0.00,,,0.00,Wunderground v.1.15,2013-06-23 12:10:00,
2013-06-23 08:15:00,70.8,67.4,30.06,South,174,6.0,11.0,89,0.00,,,0.00,Wunderground v.1.15,2013-06-23 12:15:00,
2013-06-23 08:20:00,70.9,67.2,30.06,SSE,166,0.0,3.0,88,0.00,,,0.00,Wunderground v.1.15,2013-06-23 12:20:00,
2013-06-23 08:25:00,71.3,67.6,30.06,SSE,165,0.0,5.0,88,0.00,,,0.00,Wunderground v.1.15,2013-06-23 12:25:00,
2013-06-23 08:30:00,71.8,67.7,30.06,SSE,165,5.0,5.0,87,0.00,,,0.00,Wunderground v.1.15,2013-06-23 12:30:00,
2013-06-23 08:35:00,72.0,67.2,30.06,SSE,154,5.0,9.0,85,0.00,,,0.00,Wunderground v.1.15,2013-06-23 12:35:00,
2013-06-23 08:40:00,72.0,67.2,30.06,SSE,148,8.0,9.0,85,0.00,,,0.00,Wunderground v.1.15,2013-06-23 12:40:00,
2013-06-23 08:45:00,72.1,67.3,30.06,SSE,160,3.0,10.0,85,0.00,,,0.00,Wunderground v.1.15,2013-06-23 12:45:00,
2013-06-23 08:50:00,72.0,66.9,30.06,SSE,158,5.0,5.0,84,0.00,,,0.00,Wunderground v.1.15,2013-06-23 12:50:00,
2013-06-23 08:55:00,72.1,67.0,30.06,SSE,160,2.0,7.0,84,0.00,,,0.00,Wunderground v.1.15,2013-06-23 12:55:00,
2013-06-23 09:00:00,72.5,67.4,30.06,SSE,157,3.0,6.0,84,0.00,,,0.00,Wunderground v.1.15,2013-06-23 13:00:00,
2013-06-23 09:05:00,72.5,66.7,30.06,SSE,163,1.0,9.0,82,0.00,,,0.00,Wunderground v.1.15,2013-06-23 13:05:00,
2013-06-23 09:11:00,72.3,66.5,30.06,SSE,164,3.0,11.0,82,0.00,,,0.00,Wunderground v.1.15,2013-06-23 13:11:00,
2013-06-23 09:16:00,72.5,66.7,30.05,SE,138,1.0,11.0,82,0.00,,,0.00,Wunderground v.1.15,2013-06-23 13:16:00,
2013-06-23 09:21:00,72.5,67.0,30.05,South,171,0.0,6.0,83,0.00,,,0.00,Wunderground v.1.15,2013-06-23 13:21:00,
2013-06-23 09:25:00,72.3,66.5,30.05,South,173,0.0,7.0,82,0.00,,,0.00,Wunderground v.1.15,2013-06-23 13:25:00,
2013-06-23 09:31:00,72.1,66.3,30.05,South,175,4.0,7.0,82,0.00,,,0.00,Wunderground v.1.15,2013-06-23 13:31:00,
2013-06-23 09:36:00,72.7,66.5,30.05,SSE,156,5.0,11.0,81,0.00,,,0.00,Wunderground v.1.15,2013-06-23 13:36:00,
2013-06-23 09:41:00,73.0,66.8,30.05,SSE,168,2.0,7.0,81,0.00,,,0.00,Wunderground v.1.15,2013-06-23 13:41:00,
2013-06-23 09:46:00,73.7,67.1,30.03,SSE,150,3.0,11.0,80,0.00,,,0.00,Wunderground v.1.15,2013-06-23 13:46:00,
2013-06-23 09:51:00,73.9,67.3,30.03,South,169,1.0,11.0,80,0.00,,,0.00,Wunderground v.1.15,2013-06-23 13:51:00,
2013-06-23 09:56:00,74.0,67.4,30.03,South,171,2.0,11.0,80,0.00,,,0.00,Wunderground v.1.15,2013-06-23 13:56:00,
2013-06-23 10:01:00,74.6,68.0,30.03,South,173,4.0,4.0,80,0.00,,,0.00,Wunderground v.1.15,2013-06-23 14:01:00,
2013-06-23 10:06:00,74.7,67.8,30.03,South,179,3.0,10.0,79,0.00,,,0.00,Wunderground v.1.15,2013-06-23 14:06:00,
2013-06-23 10:11:00,74.9,67.6,30.03,South,180,3.0,9.0,78,0.00,,,0.00,Wunderground v.1.15,2013-06-23 14:11:00,
2013-06-23 10:16:00,75.3,67.6,30.03,SSW,196,3.0,13.0,77,0.00,,,0.00,Wunderground v.1.15,2013-06-23 14:16:00,
2013-06-23 10:21:00,75.6,67.9,30.03,SSW,204,5.0,11.0,77,0.00,,,0.00,Wunderground v.1.15,2013-06-23 14:21:00,
2013-06-23 10:26:00,76.1,68.4,30.03,SSW,212,10.0,11.0,77,0.00,,,0.00,Wunderground v.1.15,2013-06-23 14:26:00,
2013-06-23 10:32:00,76.5,68.4,30.02,South,178,8.0,8.0,76,0.00,,,0.00,Wunderground v.1.15,2013-06-23 14:32:00,
2013-06-23 10:37:00,76.7,68.9,30.02,SSE,167,2.0,12.0,77,0.00,,,0.00,Wunderground v.1.15,2013-06-23 14:37:00,
2013-06-23 10:42:00,77.4,69.2,30.02,South,170,1.0,9.0,76,0.00,,,0.00,Wunderground v.1.15,2013-06-23 14:42:00,
2013-06-23 10:47:00,77.9,69.7,30.02,SSE,149,1.0,9.0,76,0.00,,,0.00,Wunderground v.1.15,2013-06-23 14:47:00,
2013-06-23 10:52:00,77.9,68.9,30.02,South,169,4.0,7.0,74,0.00,,,0.00,Wunderground v.1.15,2013-06-23 14:52:00,
2013-06-23 10:57:00,78.1,69.5,30.02,South,174,2.0,12.0,75,0.00,,,0.00,Wunderground v.1.15,2013-06-23 14:57:00,
2013-06-23 11:02:00,78.3,69.7,30.02,SSE,161,3.0,7.0,75,0.00,,,0.00,Wunderground v.1.15,2013-06-23 15:02:00,
2013-06-23 11:08:00,78.6,69.2,30.02,South,175,6.0,10.0,73,0.00,,,0.00,Wunderground v.1.15,2013-06-23 15:08:00,
2013-06-23 11:13:00,78.3,68.5,30.03,South,173,7.0,12.0,72,0.00,,,0.00,Wunderground v.1.15,2013-06-23 15:13:00,
2013-06-23 11:18:00,78.3,68.9,30.03,South,173,6.0,15.0,73,0.00,,,0.00,Wunderground v.1.15,2013-06-23 15:18:00,
2013-06-23 11:23:00,78.6,68.8,30.03,SSW,195,5.0,13.0,72,0.00,,,0.00,Wunderground v.1.15,2013-06-23 15:23:00,
2013-06-23 11:28:00,78.5,68.7,30.03,South,172,3.0,13.0,72,0.00,,,0.00,Wunderground v.1.15,2013-06-23 15:28:00,
2013-06-23 11:34:00,78.6,68.4,30.03,South,171,4.0,13.0,71,0.00,,,0.00,Wunderground v.1.15,2013-06-23 15:34:00,
2013-06-23 11:39:00,78.8,68.2,30.03,SSE,161,5.0,13.0,70,0.00,,,0.00,Wunderground v.1.15,2013-06-23 15:39:00,
2013-06-23 11:44:00,79.6,69.8,30.02,South,184,0.0,8.0,72,0.00,,,0.00,Wunderground v.1.15,2013-06-23 15:44:00,
2013-06-23 11:50:00,79.4,69.6,30.02,South,180,6.0,6.0,72,0.00,,,0.00,Wunderground v.1.15,2013-06-23 15:50:00,
2013-06-23 11:55:00,79.4,69.2,30.02,South,189,4.0,11.0,71,0.00,,,0.00,Wunderground v.1.15,2013-06-23 15:55:00,
2013-06-23 12:00:00,79.8,69.6,30.01,South,186,3.0,6.0,71,0.00,,,0.00,Wunderground v.1.15,2013-06-23 16:00:00,
2013-06-23 12:05:00,80.3,70.0,30.01,South,187,13.0,15.0,71,0.00,,,0.00,Wunderground v.1.15,2013-06-23 16:05:00,
2013-06-23 12:10:00,79.8,69.1,30.01,SSW,197,3.0,10.0,70,0.00,,,0.00,Wunderground v.1.15,2013-06-23 16:10:00,
2013-06-23 12:15:00,79.6,69.0,30.01,SSE,159,9.0,11.0,70,0.00,,,0.00,Wunderground v.1.15,2013-06-23 16:15:00,
2013-06-23 12:20:00,80.1,69.8,30.01,SE,145,8.0,13.0,71,0.00,,,0.00,Wunderground v.1.15,2013-06-23 16:20:00,
2013-06-23 12:25:00,80.1,69.8,30.01,SSE,162,13.0,14.0,71,0.00,,,0.00,Wunderground v.1.15,2013-06-23 16:25:00,
2013-06-23 12:31:00,80.3,69.6,30.00,SSE,168,3.0,10.0,70,0.00,,,0.00,Wunderground v.1.15,2013-06-23 16:31:00,
2013-06-23 12:36:00,80.1,69.0,30.00,South,173,7.0,15.0,69,0.00,,,0.00,Wunderground v.1.15,2013-06-23 16:36:00,
2013-06-23 12:41:00,80.3,70.0,30.00,South,177,14.0,14.0,71,0.00,,,0.00,Wunderground v.1.15,2013-06-23 16:41:00,
2013-06-23 12:46:00,80.7,71.2,30.00,SE,142,10.0,15.0,73,0.00,,,0.00,Wunderground v.1.15,2013-06-23 16:46:00,
2013-06-23 12:51:00,80.9,70.2,30.00,SSE,161,9.0,11.0,70,0.00,,,0.00,Wunderground v.1.15,2013-06-23 16:51:00,
2013-06-23 12:56:00,81.2,70.1,30.00,SSW,192,7.0,12.0,69,0.00,,,0.00,Wunderground v.1.15,2013-06-23 16:56:00,
2013-06-23 12:57:00,81.2,70.1,29.99,SSW,193,4.0,12.0,69,0.00,,,0.00,Wunderground v.1.15,2013-06-23 16:57:00,
2013-06-23 13:02:00,81.6,70.9,29.99,SSW,195,2.0,7.0,70,0.00,,,0.00,Wunderground v.1.15,2013-06-23 17:02:00,
2013-06-23 13:08:00,81.6,70.0,29.99,SSW,200,4.0,13.0,68,0.00,,,0.00,Wunderground v.1.15,2013-06-23 17:08:00,
2013-06-23 13:13:00,81.8,71.5,29.99,SSE,151,10.0,10.0,71,0.00,,,0.00,Wunderground v.1.15,2013-06-23 17:13:00,
2013-06-23 13:18:00,82.0,71.2,29.99,SSE,151,4.0,10.0,70,0.00,,,0.00,Wunderground v.1.15,2013-06-23 17:18:00,
2013-06-23 13:23:00,82.4,71.2,29.99,SSW,196,7.0,11.0,69,0.00,,,0.00,Wunderground v.1.15,2013-06-23 17:23:00,
2013-06-23 13:28:00,82.6,71.0,29.98,South,178,5.0,15.0,68,0.00,,,0.00,Wunderground v.1.15,2013-06-23 17:28:00,
2013-06-23 13:33:00,82.4,69.9,29.98,SSE,167,5.0,14.0,66,0.00,,,0.00,Wunderground v.1.15,2013-06-23 17:33:00,
2013-06-23 13:39:00,82.8,71.2,29.98,South,173,2.0,14.0,68,0.00,,,0.00,Wunderground v.1.15,2013-06-23 17:39:00,
2013-06-23 13:44:00,83.4,71.7,29.97,SSW,197,1.0,13.0,68,0.00,,,0.00,Wunderground v.1.15,2013-06-23 17:44:00,
2013-06-23 13:49:00,84.0,72.3,29.97,SSE,161,2.0,13.0,68,0.00,,,0.00,Wunderground v.1.15,2013-06-23 17:49:00,
2013-06-23 13:54:00,84.0,70.5,29.97,South,180,7.0,12.0,64,0.00,,,0.00,Wunderground v.1.15,2013-06-23 17:54:00,
2013-06-23 13:59:00,83.8,71.2,29.97,SSE,157,6.0,12.0,66,0.00,,,0.00,Wunderground v.1.15,2013-06-23 17:59:00,
2013-06-23 14:04:00,83.6,72.3,29.97,SSE,161,7.0,13.0,69,0.00,,,0.00,Wunderground v.1.15,2013-06-23 18:04:00,
2013-06-23 14:09:00,84.1,72.0,29.97,South,171,6.0,13.0,67,0.00,,,0.00,Wunderground v.1.15,2013-06-23 18:09:00,
2013-06-23 14:14:00,84.5,71.4,29.96,South,186,8.0,13.0,65,0.00,,,0.00,Wunderground v.1.15,2013-06-23 18:14:00,
2013-06-23 14:19:00,84.5,71.9,29.96,SSE,167,2.0,13.0,66,0.00,,,0.00,Wunderground v.1.15,2013-06-23 18:19:00,
2013-06-23 14:24:00,84.5,71.4,29.96,South,171,12.0,14.0,65,0.00,,,0.00,Wunderground v.1.15,2013-06-23 18:24:00,
2013-06-23 14:30:00,84.5,71.9,29.95,SSE,160,6.0,7.0,66,0.00,,,0.00,Wunderground v.1.15,2013-06-23 18:30:00,
2013-06-23 14:35:00,84.7,72.1,29.95,SW,221,4.0,15.0,66,0.00,,,0.00,Wunderground v.1.15,2013-06-23 18:35:00,
2013-06-23 14:40:00,84.0,71.4,29.95,SSE,162,4.0,7.0,66,0.00,,,0.00,Wunderground v.1.15,2013-06-23 18:40:00,
2013-06-23 14:45:00,83.4,70.8,29.96,South,176,16.0,16.0,66,0.00,,,0.00,Wunderground v.1.15,2013-06-23 18:45:00,
2013-06-23 14:50:00,83.0,70.5,29.96,SSE,163,3.0,10.0,66,0.00,,,0.00,Wunderground v.1.15,2013-06-23 18:50:00,
2013-06-23 14:55:00,83.2,71.5,29.96,West,278,10.0,12.0,68,0.00,,,0.00,Wunderground v.1.15,2013-06-23 18:55:00,
2013-06-23 15:00:00,83.2,69.8,29.94,South,179,5.0,7.0,64,0.00,,,0.00,Wunderground v.1.15,2013-06-23 19:00:00,
2013-06-23 15:05:00,82.0,69.1,29.94,South,175,2.0,15.0,65,0.00,,,0.00,Wunderground v.1.15,2013-06-23 19:05:00,
2013-06-23 15:10:00,81.4,69.8,29.94,South,172,4.0,6.0,68,0.00,,,0.00,Wunderground v.1.15,2013-06-23 19:10:00,
2013-06-23 15:15:00,81.4,70.2,29.95,SSW,201,0.0,7.0,69,0.00,,,0.00,Wunderground v.1.15,2013-06-23 19:15:00,
2013-06-23 15:20:00,80.9,68.9,29.95,South,183,0.0,6.0,67,0.00,,,0.00,Wunderground v.1.15,2013-06-23 19:20:00,
2013-06-23 15:26:00,80.5,69.4,29.95,SSE,155,6.0,9.0,69,0.00,,,0.00,Wunderground v.1.15,2013-06-23 19:26:00,
2013-06-23 15:31:00,79.9,70.1,29.95,SSW,192,0.0,6.0,72,0.00,,,0.00,Wunderground v.1.15,2013-06-23 19:31:00,
2013-06-23 15:36:00,79.2,71.0,29.95,SSW,192,0.0,6.0,76,0.00,,,0.00,Wunderground v.1.15,2013-06-23 19:36:00,
2013-06-23 15:41:00,78.8,71.4,29.95,SSW,192,0.0,1.0,78,0.00,,,0.00,Wunderground v.1.15,2013-06-23 19:41:00,
2013-06-23 15:46:00,78.6,71.5,29.95,SSW,192,0.0,4.0,79,0.00,,,0.00,Wunderground v.1.15,2013-06-23 19:46:00,
2013-06-23 15:51:00,79.2,72.9,29.95,SSW,192,0.0,3.0,81,0.00,,,0.00,Wunderground v.1.15,2013-06-23 19:51:00,
2013-06-23 15:56:00,79.8,72.7,29.95,SSW,198,4.0,6.0,79,0.00,,,0.00,Wunderground v.1.15,2013-06-23 19:56:00,
2013-06-23 16:01:00,79.6,72.1,29.95,NNE,26,1.0,6.0,78,0.00,,,0.00,Wunderground v.1.15,2013-06-23 20:01:00,
2013-06-23 16:06:00,79.9,72.0,29.95,NE,36,6.0,6.0,77,0.00,,,0.00,Wunderground v.1.15,2013-06-23 20:06:00,
2013-06-23 16:11:00,81.1,72.4,29.95,NNE,33,0.0,4.0,75,0.00,,,0.00,Wunderground v.1.15,2013-06-23 20:11:00,
2013-06-23 16:16:00,82.2,73.1,29.94,NNE,33,1.0,4.0,74,0.00,,,0.00,Wunderground v.1.15,2013-06-23 20:16:00,
2013-06-23 16:21:00,83.2,73.6,29.94,NE,37,2.0,4.0,73,0.00,,,0.00,Wunderground v.1.15,2013-06-23 20:21:00,
2013-06-23 16:26:00,83.6,73.2,29.94,NE,37,0.0,5.0,71,0.00,,,0.00,Wunderground v.1.15,2013-06-23 20:26:00,
2013-06-23 16:31:00,84.1,72.8,29.94,NE,37,0.0,0.0,69,0.00,,,0.00,Wunderground v.1.15,2013-06-23 20:31:00,
2013-06-23 16:36:00,84.9,73.2,29.94,NE,37,0.0,1.0,68,0.00,,,0.00,Wunderground v.1.15,2013-06-23 20:36:00,
2013-06-23 16:41:00,84.5,72.8,29.94,NE,36,1.0,4.0,68,0.00,,,0.00,Wunderground v.1.15,2013-06-23 20:41:00,
2013-06-23 16:46:00,84.7,74.3,29.93,NE,36,0.0,4.0,71,0.00,,,0.00,Wunderground v.1.15,2013-06-23 20:46:00,
2013-06-23 16:51:00,84.9,72.7,29.93,NE,36,0.0,0.0,67,0.00,,,0.00,Wunderground v.1.15,2013-06-23 20:51:00,
2013-06-23 16:56:00,85.1,73.8,29.93,NE,37,0.0,0.0,69,0.00,,,0.00,Wunderground v.1.15,2013-06-23 20:56:00,
2013-06-23 17:01:00,83.6,72.8,29.92,NE,37,0.0,0.0,70,0.00,,,0.00,Wunderground v.1.15,2013-06-23 21:01:00,
2013-06-23 17:06:00,82.6,73.1,29.92,NE,37,0.0,2.0,73,0.00,,,0.01,Wunderground v.1.15,2013-06-23 21:06:00,
2013-06-23 17:11:00,82.4,74.5,29.92,NE,37,0.0,1.0,77,1.01,,,0.04,Wunderground v.1.15,2013-06-23 21:11:00,
2013-06-23 17:16:00,81.4,73.9,29.92,NE,36,0.0,1.0,78,0.27,,,0.07,Wunderground v.1.15,2013-06-23 21:16:00,
2013-06-23 17:21:00,82.2,76.9,29.92,NE,37,0.0,0.0,84,0.08,,,0.07,Wunderground v.1.15,2013-06-23 21:21:00,
2013-06-23 17:26:00,82.2,75.8,29.92,NE,38,2.0,3.0,81,0.05,,,0.07,Wunderground v.1.15,2013-06-23 21:26:00,
2013-06-23 17:31:00,82.2,75.8,29.90,NE,38,0.0,1.0,81,0.00,,,0.07,Wunderground v.1.15,2013-06-23 21:31:00,
2013-06-23 17:36:00,80.7,72.8,29.90,SE,146,0.0,7.0,77,0.00,,,0.07,Wunderground v.1.15,2013-06-23 21:36:00,
2013-06-23 17:41:00,80.1,72.6,29.90,SE,146,3.0,4.0,78,0.00,,,0.07,Wunderground v.1.15,2013-06-23 21:41:00,
2013-06-23 17:47:00,79.8,73.1,29.91,SSE,164,0.0,6.0,80,0.00,,,0.07,Wunderground v.1.15,2013-06-23 21:47:00,
2013-06-23 17:52:00,79.8,72.7,29.91,SSE,167,2.0,4.0,79,0.00,,,0.07,Wunderground v.1.15,2013-06-23 21:52:00,
2013-06-23 17:57:00,79.8,71.9,29.91,South,169,0.0,6.0,77,0.00,,,0.07,Wunderground v.1.15,2013-06-23 21:57:00,
2013-06-23 18:02:00,79.8,72.3,29.94,South,169,0.0,3.0,78,0.00,,,0.07,Wunderground v.1.15,2013-06-23 22:02:00,
2013-06-23 18:07:00,79.4,71.6,29.94,SSE,168,3.0,7.0,77,0.00,,,0.07,Wunderground v.1.15,2013-06-23 22:07:00,
2013-06-23 18:12:00,79.2,71.7,29.95,South,180,0.0,7.0,78,0.00,,,0.07,Wunderground v.1.15,2013-06-23 22:12:00,
2013-06-23 18:17:00,78.8,71.4,29.95,South,174,3.0,7.0,78,0.00,,,0.07,Wunderground v.1.15,2013-06-23 22:17:00,
2013-06-23 18:22:00,78.8,71.4,29.95,SSE,161,4.0,11.0,78,0.00,,,0.07,Wunderground v.1.15,2013-06-23 22:22:00,
2013-06-23 18:27:00,78.6,71.5,29.95,South,183,4.0,11.0,79,0.00,,,0.07,Wunderground v.1.15,2013-06-23 22:27:00,
2013-06-23 18:32:00,78.5,71.4,29.95,South,171,6.0,9.0,79,0.00,,,0.07,Wunderground v.1.15,2013-06-23 22:32:00,
2013-06-23 18:37:00,78.3,70.5,29.95,SSE,167,4.0,9.0,77,0.00,,,0.07,Wunderground v.1.15,2013-06-23 22:37:00,
2013-06-23 18:42:00,78.3,70.1,29.95,South,188,2.0,9.0,76,0.00,,,0.07,Wunderground v.1.15,2013-06-23 22:42:00,
2013-06-23 18:47:00,77.9,70.1,29.94,SSE,167,5.0,9.0,77,0.00,,,0.07,Wunderground v.1.15,2013-06-23 22:47:00,
2013-06-23 18:52:00,77.4,70.0,29.94,SSE,165,0.0,5.0,78,0.00,,,0.07,Wunderground v.1.15,2013-06-23 22:52:00,
2013-06-23 18:57:00,77.2,70.5,29.94,SSE,165,0.0,5.0,80,0.00,,,0.07,Wunderground v.1.15,2013-06-23 22:57:00,
2013-06-23 19:02:00,77.0,70.4,29.94,SSE,165,0.0,1.0,80,0.00,,,0.07,Wunderground v.1.15,2013-06-23 23:02:00,
2013-06-23 19:07:00,76.8,70.2,29.94,SSE,163,0.0,4.0,80,0.00,,,0.07,Wunderground v.1.15,2013-06-23 23:07:00,
2013-06-23 19:12:00,76.3,69.7,29.94,SSE,162,0.0,6.0,80,0.00,,,0.07,Wunderground v.1.15,2013-06-23 23:12:00,
2013-06-23 19:17:00,76.1,69.8,29.94,SSE,162,0.0,6.0,81,0.00,,,0.07,Wunderground v.1.15,2013-06-23 23:17:00,
2013-06-23 19:22:00,75.8,69.9,29.94,SSE,159,4.0,6.0,82,0.00,,,0.07,Wunderground v.1.15,2013-06-23 23:22:00,
2013-06-23 19:27:00,75.8,69.6,29.94,SE,141,1.0,6.0,81,0.00,,,0.07,Wunderground v.1.15,2013-06-23 23:27:00,
2013-06-23 19:33:00,75.8,69.6,29.94,SE,141,1.0,9.0,81,0.00,,,0.07,Wunderground v.1.15,2013-06-23 23:33:00,
2013-06-23 19:38:00,75.6,69.4,29.94,SE,142,3.0,9.0,81,0.00,,,0.07,Wunderground v.1.15,2013-06-23 23:38:00,
2013-06-23 19:43:00,75.8,69.2,29.94,SE,139,1.0,4.0,80,0.00,,,0.07,Wunderground v.1.15,2013-06-23 23:43:00,
2013-06-23 19:48:00,75.8,69.2,29.94,SE,129,4.0,6.0,80,0.00,,,0.07,Wunderground v.1.15,2013-06-23 23:48:00,
2013-06-23 19:53:00,75.8,68.8,29.94,SE,138,5.0,7.0,79,0.00,,,0.07,Wunderground v.1.15,2013-06-23 23:53:00,
2013-06-23 19:58:00,75.8,68.8,29.94,SE,140,1.0,7.0,79,0.00,,,0.07,Wunderground v.1.15,2013-06-23 23:58:00,
2013-06-23 20:03:00,75.8,68.8,29.94,SE,142,0.0,6.0,79,0.00,,,0.07,Wunderground v.1.15,2013-06-24 00:03:00,
2013-06-23 20:09:00,75.8,68.8,29.94,SE,140,2.0,6.0,79,0.00,,,0.07,Wunderground v.1.15,2013-06-24 00:09:00,
2013-06-23 20:14:00,75.8,68.8,29.94,SE,132,0.0,4.0,79,0.00,,,0.07,Wunderground v.1.15,2013-06-24 00:14:00,
2013-06-23 20:19:00,75.6,69.0,29.94,SE,132,0.0,4.0,80,0.00,,,0.07,Wunderground v.1.15,2013-06-24 00:19:00,
2013-06-23 20:24:00,75.6,69.0,29.94,SE,128,5.0,7.0,80,0.00,,,0.07,Wunderground v.1.15,2013-06-24 00:24:00,
2013-06-23 20:29:00,75.6,69.4,29.94,SE,132,0.0,7.0,81,0.00,,,0.07,Wunderground v.1.15,2013-06-24 00:29:00,
2013-06-23 20:34:00,75.4,69.2,29.94,SE,139,5.0,5.0,81,0.00,,,0.07,Wunderground v.1.15,2013-06-24 00:34:00,
2013-06-23 20:39:00,75.3,69.4,29.94,SE,140,0.0,5.0,82,0.00,,,0.07,Wunderground v.1.15,2013-06-24 00:39:00,
2013-06-23 20:44:00,75.3,69.4,29.94,SE,140,3.0,7.0,82,0.00,,,0.07,Wunderground v.1.15,2013-06-24 00:44:00,
2013-06-23 20:49:00,75.1,69.2,29.94,SE,143,1.0,7.0,82,0.00,,,0.07,Wunderground v.1.15,2013-06-24 00:49:00,
2013-06-23 20:54:00,74.9,69.4,29.94,SE,135,0.0,9.0,83,0.00,,,0.07,Wunderground v.1.15,2013-06-24 00:54:00,
2013-06-23 20:59:00,74.6,69.1,29.94,South,171,4.0,11.0,83,0.00,,,0.07,Wunderground v.1.15,2013-06-24 00:59:00,
2013-06-23 21:04:00,74.6,68.7,29.94,SSE,150,6.0,9.0,82,0.00,,,0.07,Wunderground v.1.15,2013-06-24 01:04:00,
2013-06-23 21:09:00,74.4,68.5,29.94,SSE,167,4.0,11.0,82,0.00,,,0.07,Wunderground v.1.15,2013-06-24 01:09:00,
2013-06-23 21:14:00,74.2,68.3,29.95,SE,146,2.0,10.0,82,0.00,,,0.07,Wunderground v.1.15,2013-06-24 01:14:00,
2013-06-23 21:19:00,74.0,68.2,29.95,SSE,157,1.0,10.0,82,0.00,,,0.07,Wunderground v.1.15,2013-06-24 01:19:00,
2013-06-23 21:24:00,73.9,68.4,29.95,SE,139,3.0,7.0,83,0.00,,,0.07,Wunderground v.1.15,2013-06-24 01:24:00,
2013-06-23 21:29:00,73.9,68.1,29.95,SSE,151,3.0,12.0,82,0.00,,,0.07,Wunderground v.1.15,2013-06-24 01:29:00,
2013-06-23 21:34:00,74.0,68.2,29.95,SSE,167,3.0,7.0,82,0.00,,,0.07,Wunderground v.1.15,2013-06-24 01:34:00,
2013-06-23 21:39:00,74.0,68.2,29.95,SSE,166,3.0,7.0,82,0.00,,,0.07,Wunderground v.1.15,2013-06-24 01:39:00,
2013-06-23 21:44:00,74.0,68.2,29.96,SSE,166,0.0,7.0,82,0.00,,,0.07,Wunderground v.1.15,2013-06-24 01:44:00,
2013-06-23 21:49:00,73.9,68.1,29.96,SSE,154,3.0,8.0,82,0.00,,,0.07,Wunderground v.1.15,2013-06-24 01:49:00,
2013-06-23 21:54:00,74.0,68.2,29.96,SSE,148,3.0,7.0,82,0.00,,,0.07,Wunderground v.1.15,2013-06-24 01:54:00,
2013-06-23 21:59:00,74.0,68.2,29.95,SSW,198,0.0,7.0,82,0.00,,,0.07,Wunderground v.1.15,2013-06-24 01:59:00,
2013-06-23 22:04:00,74.0,68.2,29.95,South,180,4.0,6.0,82,0.00,,,0.07,Wunderground v.1.15,2013-06-24 02:04:00,
2013-06-23 22:09:00,73.9,67.7,29.95,SSE,166,1.0,6.0,81,0.00,,,0.07,Wunderground v.1.15,2013-06-24 02:09:00,
2013-06-23 22:14:00,73.9,68.1,29.95,SSE,163,0.0,8.0,82,0.00,,,0.07,Wunderground v.1.15,2013-06-24 02:14:00,
2013-06-23 22:19:00,73.7,67.9,29.95,SSE,164,6.0,8.0,82,0.00,,,0.07,Wunderground v.1.15,2013-06-24 02:19:00,
2013-06-23 22:24:00,73.7,67.9,29.95,SE,139,0.0,10.0,82,0.00,,,0.07,Wunderground v.1.15,2013-06-24 02:24:00,
2013-06-23 22:30:00,73.5,67.7,29.95,SE,138,0.0,3.0,82,0.00,,,0.07,Wunderground v.1.15,2013-06-24 02:30:00,
2013-06-23 22:35:00,73.5,67.7,29.95,SSE,157,0.0,6.0,82,0.00,,,0.07,Wunderground v.1.15,2013-06-24 02:35:00,
2013-06-23 22:40:00,73.5,67.7,29.95,SSE,153,6.0,6.0,82,0.00,,,0.07,Wunderground v.1.15,2013-06-24 02:40:00,
2013-06-23 22:45:00,73.5,67.3,29.96,SSE,159,0.0,6.0,81,0.00,,,0.07,Wunderground v.1.15,2013-06-24 02:45:00,
2013-06-23 22:50:00,73.5,67.7,29.96,SSE,157,1.0,2.0,82,0.00,,,0.07,Wunderground v.1.15,2013-06-24 02:50:00,
2013-06-23 22:55:00,73.3,67.5,29.96,SSE,159,0.0,6.0,82,0.00,,,0.07,Wunderground v.1.15,2013-06-24 02:55:00,
2013-06-23 23:00:00,73.2,67.4,29.96,SSE,159,0.0,2.0,82,0.00,,,0.07,Wunderground v.1.15,2013-06-24 03:00:00,
2013-06-23 23:05:00,73.2,67.4,29.96,SSE,159,0.0,5.0,82,0.00,,,0.07,Wunderground v.1.15,2013-06-24 03:05:00,
2013-06-23 23:10:00,73.0,67.2,29.96,SSE,158,2.0,2.0,82,0.00,,,0.07,Wunderground v.1.15,2013-06-24 03:10:00,
2013-06-23 23:15:00,73.0,67.2,29.96,SSE,158,0.0,4.0,82,0.00,,,0.07,Wunderground v.1.15,2013-06-24 03:15:00,
2013-06-23 23:20:00,73.0,67.5,29.96,SSE,158,0.0,1.0,83,0.00,,,0.07,Wunderground v.1.15,2013-06-24 03:20:00,
2013-06-23 23:25:00,72.8,67.3,29.96,SSE,158,0.0,4.0,83,0.00,,,0.07,Wunderground v.1.15,2013-06-24 03:25:00,
2013-06-23 23:30:00,72.7,67.2,29.95,SSE,159,0.0,1.0,83,0.00,,,0.07,Wunderground v.1.15,2013-06-24 03:30:00,
2013-06-23 23:35:00,72.7,67.6,29.95,SSE,155,0.0,6.0,84,0.00,,,0.07,Wunderground v.1.15,2013-06-24 03:35:00,
2013-06-23 23:40:00,72.5,67.4,29.95,SSE,155,5.0,5.0,84,0.00,,,0.07,Wunderground v.1.15,2013-06-24 03:40:00,
2013-06-23 23:45:00,72.5,67.4,29.95,SSE,155,0.0,5.0,84,0.00,,,0.07,Wunderground v.1.15,2013-06-24 03:45:00,
2013-06-23 23:50:00,72.3,67.5,29.95,SSE,155,0.0,1.0,85,0.00,,,0.07,Wunderground v.1.15,2013-06-24 03:50:00,
2013-06-23 23:55:00,72.1,67.3,29.95,SSE,155,0.0,2.0,85,0.00,,,0.07,Wunderground v.1.15,2013-06-24 03:55:00,